createdAt,value
2024-03-16T00:00:52.873Z,11.51
2024-03-16T00:01:52.853Z,11.49
2024-03-16T00:02:52.835Z,11.44
2024-03-16T00:03:52.813Z,11.44
2024-03-16T00:04:52.823Z,11.43
2024-03-16T00:05:52.795Z,11.44
2024-03-16T00:06:52.847Z,11.39
2024-03-16T00:07:52.765Z,11.37
2024-03-16T00:08:52.747Z,11.33
2024-03-16T00:09:52.787Z,11.29
2024-03-16T00:10:52.843Z,11.29
2024-03-16T00:11:52.710Z,11.27
2024-03-16T00:12:52.742Z,11.27
2024-03-16T00:13:52.702Z,11.22
2024-03-16T00:14:52.693Z,11.22
2024-03-16T00:15:52.682Z,11.17
2024-03-16T00:16:52.683Z,11.14
2024-03-16T00:17:52.725Z,11.17
2024-03-16T00:18:52.684Z,11.18
2024-03-16T00:19:52.643Z,11.14
2024-03-16T00:20:52.616Z,11.15
2024-03-16T00:21:52.641Z,11.18
2024-03-16T00:22:52.609Z,11.19
2024-03-16T00:23:52.605Z,11.19
2024-03-16T00:24:52.675Z,11.21
2024-03-16T00:25:52.559Z,11.22
2024-03-16T00:26:52.559Z,11.24
2024-03-16T00:27:52.574Z,11.25
2024-03-16T00:28:52.551Z,11.29
2024-03-16T00:29:52.514Z,11.32
2024-03-16T00:30:52.561Z,11.35
2024-03-16T00:31:52.493Z,11.39
2024-03-16T00:32:52.556Z,11.35
2024-03-16T00:33:52.530Z,11.35
2024-03-16T00:34:52.492Z,11.39
2024-03-16T00:35:52.450Z,11.36
2024-03-16T00:36:52.508Z,11.40
2024-03-16T00:37:52.449Z,11.37
2024-03-16T00:38:52.450Z,11.39
2024-03-16T00:39:52.458Z,11.40
2024-03-16T00:40:52.393Z,11.37
2024-03-16T00:41:52.393Z,11.37
2024-03-16T00:42:52.459Z,11.39
2024-03-16T00:43:52.364Z,11.35
2024-03-16T00:44:52.359Z,11.36
2024-03-16T00:45:52.367Z,11.39
2024-03-16T00:46:52.337Z,11.39
2024-03-16T00:47:52.396Z,11.32
2024-03-16T00:48:52.339Z,11.35
2024-03-16T00:49:52.302Z,11.29
2024-03-16T00:50:52.303Z,11.32
2024-03-16T00:51:52.333Z,11.28
2024-03-16T00:52:52.326Z,11.25
2024-03-16T00:53:52.280Z,11.25
2024-03-16T00:54:52.275Z,11.21
2024-03-16T00:55:52.239Z,11.19
2024-03-16T00:56:52.235Z,11.22
2024-03-16T00:57:52.246Z,11.14
2024-03-16T00:58:52.230Z,11.14
2024-03-16T00:59:52.206Z,11.11
2024-03-16T01:00:52.339Z,11.19
2024-03-16T01:01:52.256Z,11.17
2024-03-16T01:02:52.173Z,11.11
2024-03-16T01:03:52.426Z,11.15
2024-03-16T01:04:52.147Z,11.11
2024-03-16T01:05:52.161Z,11.11
2024-03-16T01:06:52.167Z,11.17
2024-03-16T01:07:52.110Z,11.17
2024-03-16T01:08:52.107Z,11.17
2024-03-16T01:09:52.114Z,11.17
2024-03-16T01:10:52.118Z,11.18
2024-03-16T01:11:52.071Z,11.17
2024-03-16T01:12:52.118Z,11.19
2024-03-16T01:13:52.062Z,11.25
2024-03-16T01:14:52.028Z,11.19
2024-03-16T01:15:52.200Z,11.22
2024-03-16T01:16:52.006Z,11.19
2024-03-16T01:17:52.031Z,11.19
2024-03-16T01:18:52.109Z,11.19
2024-03-16T01:19:51.979Z,11.18
2024-03-16T01:20:51.982Z,11.17
2024-03-16T01:21:51.995Z,11.15
2024-03-16T01:22:51.944Z,11.14
2024-03-16T01:23:51.932Z,11.10
2024-03-16T01:24:51.983Z,11.07
2024-03-16T01:25:51.930Z,11.07
2024-03-16T01:26:51.902Z,11.03
2024-03-16T01:27:51.926Z,11.00
2024-03-16T01:28:51.899Z,10.99
2024-03-16T01:29:51.882Z,11.00
2024-03-16T01:30:51.882Z,10.96
2024-03-16T01:31:51.849Z,10.94
2024-03-16T01:32:51.877Z,10.94
2024-03-16T01:33:51.855Z,10.94
2024-03-16T01:34:51.825Z,10.89
2024-03-16T01:35:51.807Z,10.94
2024-03-16T01:36:51.813Z,10.89
2024-03-16T01:37:51.780Z,10.88
2024-03-16T01:38:51.788Z,10.92
2024-03-16T01:39:51.850Z,10.88
2024-03-16T01:40:51.771Z,10.88
2024-03-16T01:41:51.738Z,10.89
2024-03-16T01:42:51.813Z,10.92
2024-03-16T01:43:51.746Z,10.94
2024-03-16T01:44:51.705Z,10.96
2024-03-16T01:45:51.733Z,10.99
2024-03-16T01:46:51.686Z,10.99
2024-03-16T01:47:51.692Z,10.99
2024-03-16T01:48:51.718Z,11.00
2024-03-16T01:49:51.654Z,10.99
2024-03-16T01:50:51.643Z,11.02
2024-03-16T01:51:51.716Z,11.06
2024-03-16T01:52:51.657Z,11.07
2024-03-16T01:53:51.622Z,11.06
2024-03-16T01:54:51.680Z,11.04
2024-03-16T01:55:51.613Z,11.06
2024-03-16T01:56:51.575Z,11.07
2024-03-16T01:57:51.857Z,11.07
2024-03-16T01:58:51.557Z,11.04
2024-03-16T01:59:51.594Z,11.06
2024-03-16T02:00:51.601Z,11.11
2024-03-16T02:01:51.599Z,11.06
2024-03-16T02:02:51.527Z,11.09
2024-03-16T02:03:51.528Z,11.06
2024-03-16T02:04:51.485Z,11.06
2024-03-16T02:05:51.481Z,11.03
2024-03-16T02:06:51.499Z,11.06
2024-03-16T02:07:51.482Z,11.02
2024-03-16T02:08:51.448Z,11.02
2024-03-16T02:09:51.457Z,11.04
2024-03-16T02:10:51.447Z,11.06
2024-03-16T02:11:51.425Z,11.04
2024-03-16T02:12:51.443Z,11.03
2024-03-16T02:13:51.393Z,11.03
2024-03-16T02:14:51.376Z,11.03
2024-03-16T02:15:51.407Z,11.02
2024-03-16T02:16:51.386Z,11.04
2024-03-16T02:17:51.432Z,11.03
2024-03-16T02:18:51.367Z,11.07
2024-03-16T02:19:51.331Z,11.06
2024-03-16T02:20:51.308Z,11.06
2024-03-16T02:21:51.348Z,11.04
2024-03-16T02:22:51.289Z,11.07
2024-03-16T02:23:51.289Z,11.09
2024-03-16T02:24:51.306Z,11.09
2024-03-16T02:25:51.283Z,11.10
2024-03-16T02:26:51.265Z,11.11
2024-03-16T02:27:51.289Z,11.09
2024-03-16T02:28:51.229Z,11.09
2024-03-16T02:29:51.224Z,11.10
2024-03-16T02:30:51.240Z,11.10
2024-03-16T02:31:52.870Z,11.14
2024-03-16T02:32:51.230Z,11.11
2024-03-16T02:33:51.190Z,11.14
2024-03-16T02:34:51.156Z,11.11
2024-03-16T02:35:51.166Z,11.17
2024-03-16T02:36:51.188Z,11.17
2024-03-16T02:37:51.134Z,11.14
2024-03-16T02:38:51.126Z,11.15
2024-03-16T02:39:51.160Z,11.15
2024-03-16T02:40:51.108Z,11.18
2024-03-16T02:41:51.089Z,11.14
2024-03-16T02:42:51.147Z,11.14
2024-03-16T02:43:51.073Z,11.17
2024-03-16T02:44:51.076Z,11.15
2024-03-16T02:45:51.105Z,11.19
2024-03-16T02:46:51.028Z,11.17
2024-03-16T02:47:51.070Z,11.18
2024-03-16T02:48:51.047Z,11.15
2024-03-16T02:49:51.016Z,11.18
2024-03-16T02:50:50.987Z,11.18
2024-03-16T02:51:51.036Z,11.17
2024-03-16T02:52:50.975Z,11.18
2024-03-16T02:53:50.960Z,11.17
2024-03-16T02:54:51.032Z,11.17
2024-03-16T02:55:50.940Z,11.17
2024-03-16T02:56:50.927Z,11.19
2024-03-16T02:57:50.956Z,11.18
2024-03-16T02:58:50.911Z,11.18
2024-03-16T02:59:50.914Z,11.17
2024-03-16T03:00:50.999Z,11.18
2024-03-16T03:01:50.887Z,11.14
2024-03-16T03:02:50.863Z,11.09
2024-03-16T03:03:50.927Z,11.09
2024-03-16T03:04:50.831Z,11.04
2024-03-16T03:05:50.826Z,11.00
2024-03-16T03:06:50.848Z,11.00
2024-03-16T03:07:50.803Z,11.02
2024-03-16T03:08:50.803Z,11.02
2024-03-16T03:09:50.821Z,10.97
2024-03-16T03:10:50.787Z,10.97
2024-03-16T03:11:50.765Z,10.97
2024-03-16T03:12:51.011Z,10.97
2024-03-16T03:13:50.752Z,11.00
2024-03-16T03:14:50.722Z,11.00
2024-03-16T03:15:50.752Z,10.99
2024-03-16T03:16:50.707Z,11.00
2024-03-16T03:17:50.799Z,11.02
2024-03-16T03:18:50.715Z,11.03
2024-03-16T03:19:50.673Z,11.04
2024-03-16T03:20:50.659Z,11.04
2024-03-16T03:21:50.679Z,11.02
2024-03-16T03:22:50.649Z,11.00
2024-03-16T03:23:50.631Z,11.00
2024-03-16T03:24:50.666Z,10.99
2024-03-16T03:25:50.607Z,11.02
2024-03-16T03:26:50.615Z,11.02
2024-03-16T03:27:50.659Z,11.03
2024-03-16T03:28:50.581Z,10.99
2024-03-16T03:29:50.573Z,10.99
2024-03-16T03:30:50.640Z,10.99
2024-03-16T03:31:50.578Z,10.97
2024-03-16T03:32:50.556Z,10.99
2024-03-16T03:33:50.562Z,10.97
2024-03-16T03:34:50.506Z,10.96
2024-03-16T03:35:50.518Z,10.97
2024-03-16T03:36:50.531Z,11.02
2024-03-16T03:37:50.485Z,10.94
2024-03-16T03:38:50.495Z,10.92
2024-03-16T03:39:50.497Z,10.96
2024-03-16T03:40:50.471Z,10.96
2024-03-16T03:41:50.447Z,10.92
2024-03-16T03:42:50.470Z,10.91
2024-03-16T03:43:50.411Z,10.92
2024-03-16T03:44:50.401Z,10.91
2024-03-16T03:45:50.436Z,10.94
2024-03-16T03:46:50.378Z,10.89
2024-03-16T03:47:50.446Z,10.88
2024-03-16T03:48:50.386Z,10.91
2024-03-16T03:49:50.347Z,10.94
2024-03-16T03:50:50.353Z,10.94
2024-03-16T03:51:50.380Z,10.94
2024-03-16T03:52:50.316Z,10.94
2024-03-16T03:53:50.310Z,10.94
2024-03-16T03:54:50.340Z,10.92
2024-03-16T03:55:50.302Z,10.92
2024-03-16T03:56:50.280Z,10.94
2024-03-16T03:57:51.795Z,10.94
2024-03-16T03:58:50.252Z,10.91
2024-03-16T03:59:50.266Z,10.96
2024-03-16T04:00:50.268Z,10.94
2024-03-16T04:01:50.256Z,10.94
2024-03-16T04:02:50.214Z,10.92
2024-03-16T04:03:50.253Z,10.94
2024-03-16T04:04:50.254Z,10.94
2024-03-16T04:05:50.185Z,10.94
2024-03-16T04:06:50.213Z,10.92
2024-03-16T04:07:50.169Z,10.89
2024-03-16T04:08:50.155Z,10.84
2024-03-16T04:09:50.242Z,10.85
2024-03-16T04:10:50.163Z,10.78
2024-03-16T04:11:50.123Z,10.79
2024-03-16T04:12:50.096Z,10.79
2024-03-16T04:13:50.124Z,10.73
2024-03-16T04:14:50.082Z,10.70
2024-03-16T04:15:50.113Z,10.71
2024-03-16T04:16:50.070Z,10.66
2024-03-16T04:17:50.078Z,10.66
2024-03-16T04:18:50.084Z,10.66
2024-03-16T04:19:50.024Z,10.64
2024-03-16T04:20:50.013Z,10.63
2024-03-16T04:21:50.026Z,10.64
2024-03-16T04:22:50.023Z,10.63
2024-03-16T04:23:50.002Z,10.63
2024-03-16T04:24:50.015Z,10.56
2024-03-16T04:25:49.984Z,10.63
2024-03-16T04:26:49.960Z,10.63
2024-03-16T04:27:50.063Z,10.64
2024-03-16T04:28:49.922Z,10.55
2024-03-16T04:29:49.924Z,10.56
2024-03-16T04:30:49.965Z,10.55
2024-03-16T04:31:49.899Z,10.59
2024-03-16T04:32:50.581Z,10.55
2024-03-16T04:33:49.944Z,10.56
2024-03-16T04:34:49.875Z,10.61
2024-03-16T04:35:49.863Z,10.61
2024-03-16T04:36:49.960Z,10.56
2024-03-16T04:37:49.851Z,10.59
2024-03-16T04:38:49.816Z,10.56
2024-03-16T04:39:49.876Z,10.60
2024-03-16T04:40:49.797Z,10.60
2024-03-16T04:41:49.811Z,10.63
2024-03-16T04:42:49.792Z,10.63
2024-03-16T04:43:49.775Z,10.60
2024-03-16T04:44:49.771Z,10.61
2024-03-16T04:45:49.781Z,10.64
2024-03-16T04:46:49.768Z,10.56
2024-03-16T04:47:49.744Z,10.56
2024-03-16T04:48:49.715Z,10.56
2024-03-16T04:49:49.704Z,10.53
2024-03-16T04:50:49.716Z,10.52
2024-03-16T04:51:49.788Z,10.47
2024-03-16T04:52:49.678Z,10.44
2024-03-16T04:53:49.651Z,10.42
2024-03-16T04:54:49.708Z,10.38
2024-03-16T04:55:49.643Z,10.34
2024-03-16T04:56:49.621Z,10.34
2024-03-16T04:57:49.652Z,10.32
2024-03-16T04:58:49.617Z,10.32
2024-03-16T04:59:49.606Z,10.29
2024-03-16T05:00:49.734Z,10.23
2024-03-16T05:01:49.632Z,10.23
2024-03-16T05:02:49.620Z,10.22
2024-03-16T05:03:49.569Z,10.15
2024-03-16T05:04:49.564Z,10.15
2024-03-16T05:05:49.545Z,10.15
2024-03-16T05:06:49.531Z,10.11
2024-03-16T05:07:49.509Z,10.11
2024-03-16T05:08:49.514Z,10.08
2024-03-16T05:09:49.515Z,10.08
2024-03-16T05:10:49.509Z,10.05
2024-03-16T05:11:49.456Z,10.04
2024-03-16T05:12:49.506Z,10.02
2024-03-16T05:13:49.434Z,10.01
2024-03-16T05:14:49.443Z,10.07
2024-03-16T05:15:49.562Z,10.09
2024-03-16T05:16:49.540Z,10.05
2024-03-16T05:17:49.548Z,10.02
2024-03-16T05:18:49.851Z,10.05
2024-03-16T05:19:49.410Z,10.04
2024-03-16T05:20:49.365Z,10.05
2024-03-16T05:21:49.374Z,10.01
2024-03-16T05:22:49.347Z,9.99
2024-03-16T05:23:49.343Z,9.94
2024-03-16T05:24:49.333Z,9.99
2024-03-16T05:25:49.310Z,9.90
2024-03-16T05:26:49.300Z,9.89
2024-03-16T05:27:49.365Z,9.90
2024-03-16T05:28:49.302Z,9.86
2024-03-16T05:29:49.266Z,9.91
2024-03-16T05:30:49.307Z,9.97
2024-03-16T05:31:49.242Z,9.94
2024-03-16T05:32:49.299Z,9.93
2024-03-16T05:33:49.306Z,9.96
2024-03-16T05:34:49.218Z,9.94
2024-03-16T05:35:49.207Z,9.96
2024-03-16T05:36:49.210Z,9.97
2024-03-16T05:37:49.183Z,9.96
2024-03-16T05:38:49.198Z,9.94
2024-03-16T05:39:49.163Z,9.90
2024-03-16T05:40:49.149Z,9.93
2024-03-16T05:41:49.137Z,9.91
2024-03-16T05:42:49.218Z,9.91
2024-03-16T05:43:49.122Z,9.93
2024-03-16T05:44:49.103Z,9.89
2024-03-16T05:45:49.128Z,9.90
2024-03-16T05:46:49.084Z,9.93
2024-03-16T05:47:49.168Z,9.96
2024-03-16T05:48:49.091Z,9.93
2024-03-16T05:49:49.066Z,9.91
2024-03-16T05:50:49.038Z,9.97
2024-03-16T05:51:49.116Z,9.96
2024-03-16T05:52:49.024Z,9.97
2024-03-16T05:53:49.002Z,9.99
2024-03-16T05:54:49.017Z,10.01
2024-03-16T05:55:48.982Z,10.05
2024-03-16T05:56:48.992Z,10.04
2024-03-16T05:57:49.006Z,10.09
2024-03-16T05:58:48.954Z,10.11
2024-03-16T05:59:48.938Z,10.14
2024-03-16T06:00:48.956Z,10.15
2024-03-16T06:01:49.006Z,10.15
2024-03-16T06:02:48.916Z,10.20
2024-03-16T06:03:48.947Z,10.22
2024-03-16T06:04:48.930Z,10.18
2024-03-16T06:05:48.902Z,10.22
2024-03-16T06:06:48.942Z,10.23
2024-03-16T06:07:48.889Z,10.25
2024-03-16T06:08:48.857Z,10.26
2024-03-16T06:09:48.996Z,10.30
2024-03-16T06:10:49.038Z,10.27
2024-03-16T06:11:48.807Z,10.32
2024-03-16T06:12:48.931Z,10.32
2024-03-16T06:13:48.801Z,10.38
2024-03-16T06:14:48.789Z,10.36
2024-03-16T06:15:48.848Z,10.40
2024-03-16T06:16:48.771Z,10.42
2024-03-16T06:17:48.776Z,10.45
2024-03-16T06:18:49.084Z,10.45
2024-03-16T06:19:48.732Z,10.51
2024-03-16T06:20:48.730Z,10.47
2024-03-16T06:21:48.761Z,10.47
2024-03-16T06:22:48.748Z,10.44
2024-03-16T06:23:48.687Z,10.48
2024-03-16T06:24:48.771Z,10.45
2024-03-16T06:25:48.671Z,10.47
2024-03-16T06:26:48.666Z,10.51
2024-03-16T06:27:48.661Z,10.44
2024-03-16T06:28:48.634Z,10.48
2024-03-16T06:29:48.624Z,10.48
2024-03-16T06:30:49.930Z,10.52
2024-03-16T06:31:48.593Z,10.47
2024-03-16T06:32:48.665Z,10.52
2024-03-16T06:33:48.641Z,10.55
2024-03-16T06:34:48.570Z,10.60
2024-03-16T06:35:48.555Z,10.59
2024-03-16T06:36:49.924Z,10.61
2024-03-16T06:37:48.532Z,10.64
2024-03-16T06:38:48.561Z,10.67
2024-03-16T06:39:48.585Z,10.71
2024-03-16T06:40:48.502Z,10.76
2024-03-16T06:41:48.483Z,10.84
2024-03-16T06:42:48.672Z,10.88
2024-03-16T06:43:48.481Z,10.92
2024-03-16T06:44:48.469Z,11.00
2024-03-16T06:45:48.506Z,11.06
2024-03-16T06:46:48.432Z,11.07
2024-03-16T06:47:48.448Z,11.14
2024-03-16T06:48:48.481Z,11.14
2024-03-16T06:49:48.395Z,11.21
2024-03-16T06:50:48.391Z,11.19
2024-03-16T06:51:48.416Z,11.25
2024-03-16T06:52:48.383Z,11.25
2024-03-16T06:53:48.364Z,11.24
2024-03-16T06:54:48.388Z,11.25
2024-03-16T06:55:48.332Z,11.25
2024-03-16T06:56:48.327Z,11.27
2024-03-16T06:57:48.365Z,11.29
2024-03-16T06:58:48.322Z,11.28
2024-03-16T06:59:48.292Z,11.33
2024-03-16T07:00:48.313Z,11.28
2024-03-16T07:01:48.335Z,11.28
2024-03-16T07:02:48.278Z,11.29
2024-03-16T07:03:48.291Z,11.27
2024-03-16T07:04:48.234Z,11.33
2024-03-16T07:05:48.242Z,11.33
2024-03-16T07:06:48.283Z,11.42
2024-03-16T07:07:48.194Z,11.33
2024-03-16T07:08:48.196Z,11.33
2024-03-16T07:09:48.246Z,11.35
2024-03-16T07:10:48.188Z,11.32
2024-03-16T07:11:48.847Z,11.33
2024-03-16T07:12:48.203Z,11.33
2024-03-16T07:13:48.143Z,11.36
2024-03-16T07:14:48.143Z,11.37
2024-03-16T07:15:48.238Z,11.40
2024-03-16T07:16:48.108Z,11.39
2024-03-16T07:17:48.184Z,11.43
2024-03-16T07:18:48.115Z,11.43
2024-03-16T07:19:48.079Z,11.46
2024-03-16T07:20:48.081Z,11.49
2024-03-16T07:21:48.100Z,11.44
2024-03-16T07:22:48.050Z,11.43
2024-03-16T07:23:48.040Z,11.43
2024-03-16T07:24:48.056Z,11.47
2024-03-16T07:25:48.022Z,11.47
2024-03-16T07:26:48.000Z,11.46
2024-03-16T07:27:48.019Z,11.47
2024-03-16T07:28:47.978Z,11.46
2024-03-16T07:29:47.977Z,11.43
2024-03-16T07:30:48.006Z,11.39
2024-03-16T07:31:47.945Z,11.35
2024-03-16T07:32:47.957Z,11.36
2024-03-16T07:33:47.966Z,11.39
2024-03-16T07:34:47.926Z,11.33
2024-03-16T07:35:47.903Z,11.35
2024-03-16T07:36:47.946Z,11.36
2024-03-16T07:37:47.873Z,11.37
2024-03-16T07:38:47.889Z,11.36
2024-03-16T07:39:47.921Z,11.36
2024-03-16T07:40:47.869Z,11.36
2024-03-16T07:41:48.036Z,11.36
2024-03-16T07:42:47.834Z,11.39
2024-03-16T07:43:47.835Z,11.35
2024-03-16T07:44:47.810Z,11.37
2024-03-16T07:45:47.803Z,11.37
2024-03-16T07:46:47.810Z,11.36
2024-03-16T07:47:47.782Z,11.35
2024-03-16T07:48:47.813Z,11.35
2024-03-16T07:49:47.757Z,11.37
2024-03-16T07:50:47.754Z,11.35
2024-03-16T07:51:47.781Z,11.36
2024-03-16T07:52:47.761Z,11.40
2024-03-16T07:53:47.721Z,11.40
2024-03-16T07:54:47.725Z,11.39
2024-03-16T07:55:47.687Z,11.37
2024-03-16T07:56:49.732Z,11.35
2024-03-16T07:57:47.697Z,11.36
2024-03-16T07:58:47.669Z,11.36
2024-03-16T07:59:47.644Z,11.36
2024-03-16T08:00:47.674Z,11.37
2024-03-16T08:01:47.672Z,11.37
2024-03-16T08:02:47.627Z,11.32
2024-03-16T08:03:47.611Z,11.35
2024-03-16T08:04:47.598Z,11.36
2024-03-16T08:05:47.570Z,11.39
2024-03-16T08:06:47.609Z,11.42
2024-03-16T08:07:47.592Z,11.39
2024-03-16T08:08:47.574Z,11.37
2024-03-16T08:09:47.616Z,11.39
2024-03-16T08:10:47.542Z,11.40
2024-03-16T08:11:47.581Z,11.37
2024-03-16T08:12:47.524Z,11.42
2024-03-16T08:13:47.488Z,11.42
2024-03-16T08:14:47.482Z,11.46
2024-03-16T08:15:47.480Z,11.46
2024-03-16T08:16:47.499Z,11.47
2024-03-16T08:17:47.458Z,11.47
2024-03-16T08:18:47.485Z,11.55
2024-03-16T08:19:47.419Z,11.54
2024-03-16T08:20:47.422Z,11.60
2024-03-16T08:21:47.449Z,11.62
2024-03-16T08:22:47.396Z,11.67
2024-03-16T08:23:47.437Z,11.69
2024-03-16T08:24:47.402Z,11.70
2024-03-16T08:25:47.391Z,11.70
2024-03-16T08:26:47.369Z,11.69
2024-03-16T08:27:47.396Z,11.67
2024-03-16T08:28:47.347Z,11.72
2024-03-16T08:29:47.335Z,11.70
2024-03-16T08:30:47.366Z,11.75
2024-03-16T08:31:47.310Z,11.75
2024-03-16T08:32:47.447Z,11.79
2024-03-16T08:33:47.302Z,11.79
2024-03-16T08:34:47.274Z,11.83
2024-03-16T08:35:47.287Z,11.83
2024-03-16T08:36:47.265Z,11.86
2024-03-16T08:37:47.249Z,11.80
2024-03-16T08:38:47.264Z,11.80
2024-03-16T08:39:47.286Z,11.79
2024-03-16T08:40:47.213Z,11.76
2024-03-16T08:41:47.203Z,11.78
2024-03-16T08:42:47.231Z,11.78
2024-03-16T08:43:47.190Z,11.73
2024-03-16T08:44:47.174Z,11.73
2024-03-16T08:45:47.192Z,11.73
2024-03-16T08:46:47.198Z,11.70
2024-03-16T08:47:47.193Z,11.67
2024-03-16T08:48:47.147Z,11.65
2024-03-16T08:49:47.126Z,11.62
2024-03-16T08:50:47.101Z,11.65
2024-03-16T08:51:47.111Z,11.65
2024-03-16T08:52:47.062Z,11.62
2024-03-16T08:53:47.070Z,11.65
2024-03-16T08:54:47.112Z,11.65
2024-03-16T08:55:47.052Z,11.67
2024-03-16T08:56:47.037Z,11.65
2024-03-16T08:57:47.099Z,11.69
2024-03-16T08:58:47.696Z,11.73
2024-03-16T08:59:47.029Z,11.72
2024-03-16T09:00:47.106Z,11.78
2024-03-16T09:01:47.034Z,11.79
2024-03-16T09:02:46.967Z,11.83
2024-03-16T09:03:47.023Z,11.86
2024-03-16T09:04:48.691Z,11.82
2024-03-16T09:05:46.932Z,11.83
2024-03-16T09:06:46.942Z,11.85
2024-03-16T09:07:46.934Z,11.85
2024-03-16T09:08:46.915Z,11.88
2024-03-16T09:09:46.916Z,11.86
2024-03-16T09:10:46.876Z,11.91
2024-03-16T09:11:46.938Z,11.83
2024-03-16T09:12:46.893Z,11.85
2024-03-16T09:13:46.842Z,11.88
2024-03-16T09:14:46.835Z,11.85
2024-03-16T09:15:46.904Z,11.88
2024-03-16T09:16:46.806Z,11.86
2024-03-16T09:17:46.856Z,11.88
2024-03-16T09:18:46.794Z,11.91
2024-03-16T09:19:46.783Z,12.02
2024-03-16T09:20:46.759Z,12.02
2024-03-16T09:21:46.830Z,12.12
2024-03-16T09:22:46.780Z,12.16
2024-03-16T09:23:46.736Z,12.29
2024-03-16T09:24:46.761Z,12.37
2024-03-16T09:25:48.159Z,12.45
2024-03-16T09:26:46.717Z,12.42
2024-03-16T09:27:46.736Z,12.41
2024-03-16T09:28:46.682Z,12.49
2024-03-16T09:29:46.672Z,12.50
2024-03-16T09:30:46.810Z,12.57
2024-03-16T09:31:46.664Z,12.59
2024-03-16T09:32:46.640Z,12.65
2024-03-16T09:33:46.715Z,12.56
2024-03-16T09:34:46.614Z,12.53
2024-03-16T09:35:46.615Z,12.50
2024-03-16T09:36:47.969Z,12.59
2024-03-16T09:37:47.841Z,12.53
2024-03-16T09:38:46.569Z,12.60
2024-03-16T09:39:46.613Z,12.67
2024-03-16T09:40:46.556Z,12.72
2024-03-16T09:41:46.561Z,12.85
2024-03-16T09:42:46.552Z,12.85
2024-03-16T09:43:46.486Z,12.85
2024-03-16T09:44:46.480Z,12.87
2024-03-16T09:45:46.509Z,12.85
2024-03-16T09:46:46.454Z,12.83
2024-03-16T09:47:46.523Z,12.78
2024-03-16T09:48:46.443Z,12.82
2024-03-16T09:49:46.438Z,12.82
2024-03-16T09:50:46.415Z,12.85
2024-03-16T09:51:46.401Z,12.97
2024-03-16T09:52:46.377Z,13.08
2024-03-16T09:53:46.383Z,13.19
2024-03-16T09:54:46.382Z,13.36
2024-03-16T09:55:46.357Z,13.42
2024-03-16T09:56:46.341Z,13.57
2024-03-16T09:57:46.376Z,13.70
2024-03-16T09:58:46.320Z,13.82
2024-03-16T09:59:46.343Z,13.88
2024-03-16T10:00:46.361Z,13.95
2024-03-16T10:01:46.292Z,14.03
2024-03-16T10:02:46.272Z,14.00
2024-03-16T10:03:46.298Z,14.00
2024-03-16T10:04:46.286Z,13.96
2024-03-16T10:05:46.244Z,13.89
2024-03-16T10:06:46.264Z,13.82
2024-03-16T10:07:46.223Z,13.77
2024-03-16T10:08:46.231Z,13.69
2024-03-16T10:09:46.292Z,13.55
2024-03-16T10:10:46.281Z,13.54
2024-03-16T10:11:46.188Z,13.48
2024-03-16T10:12:46.208Z,13.51
2024-03-16T10:13:46.171Z,13.59
2024-03-16T10:14:46.143Z,13.60
2024-03-16T10:15:46.168Z,13.71
2024-03-16T10:16:46.134Z,13.81
2024-03-16T10:17:47.342Z,13.91
2024-03-16T10:18:46.122Z,13.97
2024-03-16T10:19:46.108Z,14.02
2024-03-16T10:20:46.080Z,14.03
2024-03-16T10:21:46.139Z,14.09
2024-03-16T10:22:46.075Z,14.09
2024-03-16T10:23:46.046Z,14.12
2024-03-16T10:24:46.056Z,14.20
2024-03-16T10:25:46.050Z,14.22
2024-03-16T10:26:46.016Z,14.22
2024-03-16T10:27:46.055Z,14.33
2024-03-16T10:28:45.995Z,14.39
2024-03-16T10:29:45.984Z,14.45
2024-03-16T10:30:46.030Z,14.52
2024-03-16T10:31:45.974Z,14.50
2024-03-16T10:32:45.960Z,14.54
2024-03-16T10:33:45.994Z,14.51
2024-03-16T10:34:45.925Z,14.52
2024-03-16T10:35:45.922Z,14.50
2024-03-16T10:36:45.984Z,14.43
2024-03-16T10:37:48.315Z,14.37
2024-03-16T10:38:45.879Z,14.32
2024-03-16T10:39:45.922Z,14.22
2024-03-16T10:40:45.862Z,14.14
2024-03-16T10:41:45.868Z,14.03
2024-03-16T10:42:45.841Z,13.88
2024-03-16T10:43:45.832Z,13.82
2024-03-16T10:44:45.825Z,13.79
2024-03-16T10:45:45.827Z,13.73
2024-03-16T10:46:45.826Z,13.79
2024-03-16T10:47:45.816Z,13.79
2024-03-16T10:48:45.776Z,13.75
2024-03-16T10:49:45.766Z,13.82
2024-03-16T10:50:45.765Z,13.84
2024-03-16T10:51:45.762Z,13.81
2024-03-16T10:52:45.730Z,13.78
2024-03-16T10:53:45.732Z,13.64
2024-03-16T10:54:45.713Z,13.49
2024-03-16T10:55:45.719Z,13.36
2024-03-16T10:56:45.691Z,13.29
2024-03-16T10:57:45.683Z,13.22
2024-03-16T10:58:45.676Z,13.08
2024-03-16T10:59:45.673Z,13.07
2024-03-16T11:00:45.672Z,12.92
2024-03-16T11:01:45.642Z,12.77
2024-03-16T11:02:45.624Z,12.79
2024-03-16T11:03:45.615Z,12.70
2024-03-16T11:04:45.616Z,12.70
2024-03-16T11:05:45.594Z,12.67
2024-03-16T11:06:45.585Z,12.60
2024-03-16T11:07:45.579Z,12.57
2024-03-16T11:08:45.586Z,12.54
2024-03-16T11:09:45.573Z,12.56
2024-03-16T11:10:45.635Z,12.53
2024-03-16T11:11:45.534Z,12.54
2024-03-16T11:12:45.703Z,12.57
2024-03-16T11:13:46.820Z,12.57
2024-03-16T11:14:45.515Z,12.60
2024-03-16T11:15:45.487Z,12.60
2024-03-16T11:16:45.472Z,12.53
2024-03-16T11:17:45.470Z,12.53
2024-03-16T11:18:45.483Z,12.57
2024-03-16T11:19:45.469Z,12.65
2024-03-16T11:20:45.438Z,12.74
2024-03-16T11:21:45.431Z,12.70
2024-03-16T11:22:45.401Z,12.71
2024-03-16T11:23:45.432Z,12.72
2024-03-16T11:24:45.439Z,12.71
2024-03-16T11:25:45.381Z,12.64
2024-03-16T11:26:45.361Z,12.54
2024-03-16T11:27:45.360Z,12.47
2024-03-16T11:28:45.355Z,12.46
2024-03-16T11:29:45.347Z,12.49
2024-03-16T11:30:45.318Z,12.52
2024-03-16T11:31:45.312Z,12.57
2024-03-16T11:32:45.316Z,12.71
2024-03-16T11:33:45.307Z,12.78
2024-03-16T11:34:45.280Z,12.86
2024-03-16T11:35:45.272Z,12.92
2024-03-16T11:36:45.252Z,12.97
2024-03-16T11:37:47.398Z,12.97
2024-03-16T11:38:45.234Z,13.01
2024-03-16T11:39:45.241Z,12.96
2024-03-16T11:40:45.209Z,12.89
2024-03-16T11:41:45.214Z,12.83
2024-03-16T11:42:45.205Z,12.83
2024-03-16T11:43:45.183Z,12.75
2024-03-16T11:44:45.162Z,12.75
2024-03-16T11:45:45.160Z,12.65
2024-03-16T11:46:45.159Z,12.60
2024-03-16T11:47:45.156Z,12.53
2024-03-16T11:48:45.127Z,12.49
2024-03-16T11:49:45.124Z,12.53
2024-03-16T11:50:45.115Z,12.50
2024-03-16T11:51:45.110Z,12.42
2024-03-16T11:52:45.088Z,12.46
2024-03-16T11:53:45.079Z,12.46
2024-03-16T11:54:45.074Z,12.35
2024-03-16T11:55:45.072Z,12.35
2024-03-16T11:56:45.108Z,12.32
2024-03-16T11:57:45.040Z,12.29
2024-03-16T11:58:45.020Z,12.24
2024-03-16T11:59:45.128Z,12.17
2024-03-16T12:00:45.099Z,12.12
2024-03-16T12:01:45.077Z,12.05
2024-03-16T12:02:44.978Z,11.88
2024-03-16T12:03:44.994Z,11.79
2024-03-16T12:04:44.950Z,11.70
2024-03-16T12:05:45.052Z,11.65
2024-03-16T12:06:44.932Z,11.58
2024-03-16T12:07:44.924Z,11.52
2024-03-16T12:08:44.940Z,11.39
2024-03-16T12:09:44.915Z,11.37
2024-03-16T12:10:44.948Z,11.28
2024-03-16T12:11:44.884Z,11.25
2024-03-16T12:12:44.861Z,11.21
2024-03-16T12:13:44.856Z,11.19
2024-03-16T12:14:44.870Z,11.11
2024-03-16T12:15:44.851Z,11.04
2024-03-16T12:16:44.821Z,10.99
2024-03-16T12:17:44.813Z,11.00
2024-03-16T12:18:44.798Z,10.89
2024-03-16T12:19:44.809Z,10.76
2024-03-16T12:20:44.780Z,10.74
2024-03-16T12:21:44.789Z,10.66
2024-03-16T12:22:44.756Z,10.70
2024-03-16T12:23:44.751Z,10.73
2024-03-16T12:24:44.762Z,10.64
2024-03-16T12:25:44.730Z,10.59
2024-03-16T12:26:44.712Z,10.55
2024-03-16T12:27:44.723Z,10.55
2024-03-16T12:28:44.724Z,10.51
2024-03-16T12:29:44.705Z,10.53
2024-03-16T12:30:44.666Z,10.55
2024-03-16T12:31:44.672Z,10.48
2024-03-16T12:32:44.647Z,10.41
2024-03-16T12:33:44.661Z,10.38
2024-03-16T12:34:44.621Z,10.40
2024-03-16T12:35:44.617Z,10.34
2024-03-16T12:36:44.602Z,10.30
2024-03-16T12:37:44.599Z,10.30
2024-03-16T12:38:44.593Z,10.26
2024-03-16T12:39:44.577Z,10.22
2024-03-16T12:40:44.575Z,10.27
2024-03-16T12:41:44.550Z,10.33
2024-03-16T12:42:44.554Z,10.36
2024-03-16T12:43:44.547Z,10.41
2024-03-16T12:44:44.514Z,10.41
2024-03-16T12:45:44.512Z,10.42
2024-03-16T12:46:44.498Z,10.36
2024-03-16T12:47:44.506Z,10.34
2024-03-16T12:48:44.481Z,10.34
2024-03-16T12:49:44.468Z,10.38
2024-03-16T12:50:44.451Z,10.34
2024-03-16T12:51:44.445Z,10.30
2024-03-16T12:52:44.444Z,10.33
2024-03-16T12:53:44.422Z,10.30